sensor_id;sensor_type;location;lat;lon;timestamp;temperature;humidity
69054;DHT22;56125;52.242;4.756;2022-08-21T00:05:00;23.20;55.50
69054;DHT22;56125;52.242;4.756;2022-08-21T00:10:01;23.10;56.40
69054;DHT22;56125;52.242;4.756;2022-08-21T00:15:04;23.20;55.40
69054;DHT22;56125;52.242;4.756;2022-08-21T00:20:08;23.10;55.40
69054;DHT22;56125;52.242;4.756;2022-08-21T00:25:10;23.10;55.40
69054;DHT22;56125;52.242;4.756;2022-08-21T00:30:15;23.10;55.50
69054;DHT22;56125;52.242;4.756;2022-08-21T00:35:21;23.10;55.60
69054;DHT22;56125;52.242;4.756;2022-08-21T00:40:30;23.10;55.50
69054;DHT22;56125;52.242;4.756;2022-08-21T00:45:31;23.10;55.60
69054;DHT22;56125;52.242;4.756;2022-08-21T00:50:35;23.10;55.70
69054;DHT22;56125;52.242;4.756;2022-08-21T00:55:38;23.10;55.80
69054;DHT22;56125;52.242;4.756;2022-08-21T01:00:41;23.10;56.00
69054;DHT22;56125;52.242;4.756;2022-08-21T01:05:44;23.00;56.00
69054;DHT22;56125;52.242;4.756;2022-08-21T01:10:46;23.10;56.10
69054;DHT22;56125;52.242;4.756;2022-08-21T01:15:48;23.00;56.10
69054;DHT22;56125;52.242;4.756;2022-08-21T01:26:08;23.00;56.30
69054;DHT22;56125;52.242;4.756;2022-08-21T01:31:10;23.00;56.40
69054;DHT22;56125;52.242;4.756;2022-08-21T01:36:13;23.00;56.40
69054;DHT22;56125;52.242;4.756;2022-08-21T01:41:15;23.00;56.50
69054;DHT22;56125;52.242;4.756;2022-08-21T01:46:17;23.00;56.50
69054;DHT22;56125;52.242;4.756;2022-08-21T01:51:18;23.00;56.60
69054;DHT22;56125;52.242;4.756;2022-08-21T01:56:19;23.00;56.60
69054;DHT22;56125;52.242;4.756;2022-08-21T02:01:20;23.00;56.80
69054;DHT22;56125;52.242;4.756;2022-08-21T02:06:21;23.00;56.80
69054;DHT22;56125;52.242;4.756;2022-08-21T02:11:22;23.00;56.90
69054;DHT22;56125;52.242;4.756;2022-08-21T02:16:23;22.90;56.80
69054;DHT22;56125;52.242;4.756;2022-08-21T02:21:24;22.90;57.00
69054;DHT22;56125;52.242;4.756;2022-08-21T02:26:26;23.00;57.00
69054;DHT22;56125;52.242;4.756;2022-08-21T02:31:27;22.90;56.90
69054;DHT22;56125;52.242;4.756;2022-08-21T02:36:28;22.90;57.00
69054;DHT22;56125;52.242;4.756;2022-08-21T02:41:29;22.90;57.00
69054;DHT22;56125;52.242;4.756;2022-08-21T02:46:30;22.90;57.00
69054;DHT22;56125;52.242;4.756;2022-08-21T02:51:32;22.90;56.90
69054;DHT22;56125;52.242;4.756;2022-08-21T02:56:33;22.90;56.90
69054;DHT22;56125;52.242;4.756;2022-08-21T03:01:34;22.90;56.90
69054;DHT22;56125;52.242;4.756;2022-08-21T03:06:35;22.90;57.00
69054;DHT22;56125;52.242;4.756;2022-08-21T03:11:36;22.90;56.80
69054;DHT22;56125;52.242;4.756;2022-08-21T03:16:37;22.90;56.80
69054;DHT22;56125;52.242;4.756;2022-08-21T03:21:38;22.80;56.70
69054;DHT22;56125;52.242;4.756;2022-08-21T03:26:39;22.90;56.70
69054;DHT22;56125;52.242;4.756;2022-08-21T03:31:40;22.90;56.70
69054;DHT22;56125;52.242;4.756;2022-08-21T03:36:42;22.80;56.60
69054;DHT22;56125;52.242;4.756;2022-08-21T03:41:43;22.80;56.60
69054;DHT22;56125;52.242;4.756;2022-08-21T03:46:44;22.80;56.60
69054;DHT22;56125;52.242;4.756;2022-08-21T03:51:45;22.80;56.50
69054;DHT22;56125;52.242;4.756;2022-08-21T03:56:46;22.80;56.60
69054;DHT22;56125;52.242;4.756;2022-08-21T04:01:59;22.80;56.60
69054;DHT22;56125;52.242;4.756;2022-08-21T04:07:00;22.80;56.50
69054;DHT22;56125;52.242;4.756;2022-08-21T04:12:02;22.80;56.50
69054;DHT22;56125;52.242;4.756;2022-08-21T04:17:04;22.70;56.50
69054;DHT22;56125;52.242;4.756;2022-08-21T04:22:06;22.70;56.50
69054;DHT22;56125;52.242;4.756;2022-08-21T04:27:07;22.70;56.50
69054;DHT22;56125;52.242;4.756;2022-08-21T04:32:08;22.70;56.60
69054;DHT22;56125;52.242;4.756;2022-08-21T04:37:09;22.70;56.50
69054;DHT22;56125;52.242;4.756;2022-08-21T04:42:10;22.70;56.60
69054;DHT22;56125;52.242;4.756;2022-08-21T04:47:11;22.60;56.50
69054;DHT22;56125;52.242;4.756;2022-08-21T04:52:14;22.70;56.60
69054;DHT22;56125;52.242;4.756;2022-08-21T04:57:16;22.70;56.60
69054;DHT22;56125;52.242;4.756;2022-08-21T05:02:17;22.70;56.60
69054;DHT22;56125;52.242;4.756;2022-08-21T05:07:22;22.70;56.50
69054;DHT22;56125;52.242;4.756;2022-08-21T05:12:24;22.70;56.50
69054;DHT22;56125;52.242;4.756;2022-08-21T05:17:25;22.80;56.50
69054;DHT22;56125;52.242;4.756;2022-08-21T05:22:26;22.70;56.50
69054;DHT22;56125;52.242;4.756;2022-08-21T05:27:27;22.70;57.50
69054;DHT22;56125;52.242;4.756;2022-08-21T05:32:30;22.80;56.50
69054;DHT22;56125;52.242;4.756;2022-08-21T05:37:31;22.80;56.60
69054;DHT22;56125;52.242;4.756;2022-08-21T05:42:32;22.70;56.60
69054;DHT22;56125;52.242;4.756;2022-08-21T05:47:33;22.80;56.80
69054;DHT22;56125;52.242;4.756;2022-08-21T05:52:34;22.80;57.10
69054;DHT22;56125;52.242;4.756;2022-08-21T05:57:35;22.80;57.00
69054;DHT22;56125;52.242;4.756;2022-08-21T06:02:36;22.90;57.00
69054;DHT22;56125;52.242;4.756;2022-08-21T06:07:37;22.90;57.00
69054;DHT22;56125;52.242;4.756;2022-08-21T06:12:39;22.90;57.40
69054;DHT22;56125;52.242;4.756;2022-08-21T06:17:40;22.90;57.40
69054;DHT22;56125;52.242;4.756;2022-08-21T06:22:41;22.90;57.50
69054;DHT22;56125;52.242;4.756;2022-08-21T06:27:42;22.90;58.10
69054;DHT22;56125;52.242;4.756;2022-08-21T06:32:43;22.90;58.10
69054;DHT22;56125;52.242;4.756;2022-08-21T06:37:44;22.90;58.20
69054;DHT22;56125;52.242;4.756;2022-08-21T06:42:45;23.00;58.40
69054;DHT22;56125;52.242;4.756;2022-08-21T06:47:46;23.00;58.80
69054;DHT22;56125;52.242;4.756;2022-08-21T06:52:47;23.00;59.00
69054;DHT22;56125;52.242;4.756;2022-08-21T06:57:48;23.00;59.00
69054;DHT22;56125;52.242;4.756;2022-08-21T07:02:49;23.00;58.90
69054;DHT22;56125;52.242;4.756;2022-08-21T07:07:50;23.00;59.00
69054;DHT22;56125;52.242;4.756;2022-08-21T07:12:52;23.00;59.30
69054;DHT22;56125;52.242;4.756;2022-08-21T07:17:54;23.00;59.40
69054;DHT22;56125;52.242;4.756;2022-08-21T07:22:58;23.00;59.50
69054;DHT22;56125;52.242;4.756;2022-08-21T07:27:59;23.00;59.60
69054;DHT22;56125;52.242;4.756;2022-08-21T07:33:00;23.00;59.90
69054;DHT22;56125;52.242;4.756;2022-08-21T07:38:01;23.00;59.80
69054;DHT22;56125;52.242;4.756;2022-08-21T07:43:02;23.10;60.00
69054;DHT22;56125;52.242;4.756;2022-08-21T07:48:04;23.10;60.40
69054;DHT22;56125;52.242;4.756;2022-08-21T07:53:05;23.00;60.60
69054;DHT22;56125;52.242;4.756;2022-08-21T07:58:06;23.00;60.70
69054;DHT22;56125;52.242;4.756;2022-08-21T08:03:07;23.00;60.90
69054;DHT22;56125;52.242;4.756;2022-08-21T08:08:09;23.00;61.00
69054;DHT22;56125;52.242;4.756;2022-08-21T08:13:10;23.00;61.60
69054;DHT22;56125;52.242;4.756;2022-08-21T08:18:11;23.00;62.00
69054;DHT22;56125;52.242;4.756;2022-08-21T08:23:15;23.00;62.10
69054;DHT22;56125;52.242;4.756;2022-08-21T08:28:16;23.00;61.90
69054;DHT22;56125;52.242;4.756;2022-08-21T08:33:17;23.00;62.20
69054;DHT22;56125;52.242;4.756;2022-08-21T08:38:19;23.00;62.60
69054;DHT22;56125;52.242;4.756;2022-08-21T08:43:21;23.00;62.80
69054;DHT22;56125;52.242;4.756;2022-08-21T08:53:50;23.00;62.70
69054;DHT22;56125;52.242;4.756;2022-08-21T08:58:52;22.90;62.70
69054;DHT22;56125;52.242;4.756;2022-08-21T09:03:54;22.90;62.90
69054;DHT22;56125;52.242;4.756;2022-08-21T09:09:19;22.90;63.30
69054;DHT22;56125;52.242;4.756;2022-08-21T09:25:10;23.00;63.60
69054;DHT22;56125;52.242;4.756;2022-08-21T09:30:13;23.00;63.10
69054;DHT22;56125;52.242;4.756;2022-08-21T09:35:22;23.00;62.70
69054;DHT22;56125;52.242;4.756;2022-08-21T09:45:34;23.00;62.90
69054;DHT22;56125;52.242;4.756;2022-08-21T09:50:35;23.00;62.50
69054;DHT22;56125;52.242;4.756;2022-08-21T09:55:54;23.10;62.30
69054;DHT22;56125;52.242;4.756;2022-08-21T10:01:20;23.10;61.80
69054;DHT22;56125;52.242;4.756;2022-08-21T10:06:24;23.10;61.60
69054;DHT22;56125;52.242;4.756;2022-08-21T10:11:28;23.10;61.50
69054;DHT22;56125;52.242;4.756;2022-08-21T10:16:58;23.10;60.80
69054;DHT22;56125;52.242;4.756;2022-08-21T10:27:55;23.10;60.00
69054;DHT22;56125;52.242;4.756;2022-08-21T10:55:04;23.10;59.30
69054;DHT22;56125;52.242;4.756;2022-08-21T11:00:10;23.10;59.00
69054;DHT22;56125;52.242;4.756;2022-08-21T11:05:39;23.10;59.40
69054;DHT22;56125;52.242;4.756;2022-08-21T11:10:51;23.10;58.90
69054;DHT22;56125;52.242;4.756;2022-08-21T11:16:04;23.10;58.80
69054;DHT22;56125;52.242;4.756;2022-08-21T11:21:33;23.20;58.70
69054;DHT22;56125;52.242;4.756;2022-08-21T11:26:45;23.20;58.70
69054;DHT22;56125;52.242;4.756;2022-08-21T11:43:20;23.20;58.30
69054;DHT22;56125;52.242;4.756;2022-08-21T11:53:51;23.20;57.80
69054;DHT22;56125;52.242;4.756;2022-08-21T11:59:00;23.30;57.70
69054;DHT22;56125;52.242;4.756;2022-08-21T12:04:18;23.30;57.70
69054;DHT22;56125;52.242;4.756;2022-08-21T12:09:30;23.30;57.70
69054;DHT22;56125;52.242;4.756;2022-08-21T12:14:47;23.30;57.50
69054;DHT22;56125;52.242;4.756;2022-08-21T12:20:22;23.30;58.10
69054;DHT22;56125;52.242;4.756;2022-08-21T12:25:23;23.30;57.20
69054;DHT22;56125;52.242;4.756;2022-08-21T12:35:36;23.30;57.70
69054;DHT22;56125;52.242;4.756;2022-08-21T12:40:49;23.30;57.60
69054;DHT22;56125;52.242;4.756;2022-08-21T12:45:51;23.40;58.30
69054;DHT22;56125;52.242;4.756;2022-08-21T12:50:56;23.30;58.80
69054;DHT22;56125;52.242;4.756;2022-08-21T12:56:02;23.30;58.80
69054;DHT22;56125;52.242;4.756;2022-08-21T13:01:07;23.40;58.70
69054;DHT22;56125;52.242;4.756;2022-08-21T13:06:18;23.40;58.40
69054;DHT22;56125;52.242;4.756;2022-08-21T13:11:22;23.40;58.30
69054;DHT22;56125;52.242;4.756;2022-08-21T13:16:27;23.40;58.30
69054;DHT22;56125;52.242;4.756;2022-08-21T13:21:49;23.40;58.20
69054;DHT22;56125;52.242;4.756;2022-08-21T13:26:50;23.40;58.30
69054;DHT22;56125;52.242;4.756;2022-08-21T13:31:57;23.40;58.00
69054;DHT22;56125;52.242;4.756;2022-08-21T13:37:02;23.40;58.10
69054;DHT22;56125;52.242;4.756;2022-08-21T13:42:09;23.40;58.00
69054;DHT22;56125;52.242;4.756;2022-08-21T13:47:12;23.40;57.90
69054;DHT22;56125;52.242;4.756;2022-08-21T13:52:20;23.40;57.20
69054;DHT22;56125;52.242;4.756;2022-08-21T13:57:27;23.40;56.70
69054;DHT22;56125;52.242;4.756;2022-08-21T14:02:29;23.40;57.70
69054;DHT22;56125;52.242;4.756;2022-08-21T14:07:36;23.40;57.90
69054;DHT22;56125;52.242;4.756;2022-08-21T14:12:43;23.40;57.60
69054;DHT22;56125;52.242;4.756;2022-08-21T14:17:46;23.40;57.60
69054;DHT22;56125;52.242;4.756;2022-08-21T14:22:47;23.40;57.80
69054;DHT22;56125;52.242;4.756;2022-08-21T14:32:51;23.40;57.50
69054;DHT22;56125;52.242;4.756;2022-08-21T14:37:52;23.40;57.70
69054;DHT22;56125;52.242;4.756;2022-08-21T14:42:55;23.40;57.70
69054;DHT22;56125;52.242;4.756;2022-08-21T14:47:57;23.40;57.80
69054;DHT22;56125;52.242;4.756;2022-08-21T14:52:58;23.40;58.10
69054;DHT22;56125;52.242;4.756;2022-08-21T14:58:00;23.40;58.20
69054;DHT22;56125;52.242;4.756;2022-08-21T15:03:01;23.40;58.30
69054;DHT22;56125;52.242;4.756;2022-08-21T15:08:02;23.40;58.80
69054;DHT22;56125;52.242;4.756;2022-08-21T15:13:05;23.40;59.00
69054;DHT22;56125;52.242;4.756;2022-08-21T15:18:07;23.40;58.90
69054;DHT22;56125;52.242;4.756;2022-08-21T15:23:08;23.40;58.80
69054;DHT22;56125;52.242;4.756;2022-08-21T15:28:10;23.40;58.50
69054;DHT22;56125;52.242;4.756;2022-08-21T15:33:12;23.40;58.30
69054;DHT22;56125;52.242;4.756;2022-08-21T15:38:14;23.40;58.10
69054;DHT22;56125;52.242;4.756;2022-08-21T15:43:25;23.40;58.00
69054;DHT22;56125;52.242;4.756;2022-08-21T15:48:28;23.40;57.60
69054;DHT22;56125;52.242;4.756;2022-08-21T15:53:29;23.40;57.60
69054;DHT22;56125;52.242;4.756;2022-08-21T15:58:32;23.40;57.60
69054;DHT22;56125;52.242;4.756;2022-08-21T16:03:33;23.40;57.60
69054;DHT22;56125;52.242;4.756;2022-08-21T16:08:34;23.50;57.30
69054;DHT22;56125;52.242;4.756;2022-08-21T16:13:39;23.50;57.70
69054;DHT22;56125;52.242;4.756;2022-08-21T16:18:43;23.50;57.70
69054;DHT22;56125;52.242;4.756;2022-08-21T16:23:44;23.40;57.20
69054;DHT22;56125;52.242;4.756;2022-08-21T16:28:48;23.50;57.20
69054;DHT22;56125;52.242;4.756;2022-08-21T16:33:54;23.40;56.60
69054;DHT22;56125;52.242;4.756;2022-08-21T16:38:56;23.50;58.10
69054;DHT22;56125;52.242;4.756;2022-08-21T16:43:58;23.50;56.80
69054;DHT22;56125;52.242;4.756;2022-08-21T16:49:01;23.50;57.00
69054;DHT22;56125;52.242;4.756;2022-08-21T16:54:02;23.40;57.50
69054;DHT22;56125;52.242;4.756;2022-08-21T16:59:04;23.40;57.50
69054;DHT22;56125;52.242;4.756;2022-08-21T17:04:05;23.40;57.70
69054;DHT22;56125;52.242;4.756;2022-08-21T17:09:06;23.40;58.60
69054;DHT22;56125;52.242;4.756;2022-08-21T17:14:25;23.40;58.20
69054;DHT22;56125;52.242;4.756;2022-08-21T17:19:26;23.40;58.80
69054;DHT22;56125;52.242;4.756;2022-08-21T17:24:27;23.40;57.60
69054;DHT22;56125;52.242;4.756;2022-08-21T17:29:34;23.40;57.40
69054;DHT22;56125;52.242;4.756;2022-08-21T17:34:37;23.30;56.70
69054;DHT22;56125;52.242;4.756;2022-08-21T17:39:38;23.30;56.40
69054;DHT22;56125;52.242;4.756;2022-08-21T17:44:41;23.40;56.40
69054;DHT22;56125;52.242;4.756;2022-08-21T17:49:43;23.30;56.40
69054;DHT22;56125;52.242;4.756;2022-08-21T17:54:44;23.30;56.50
69054;DHT22;56125;52.242;4.756;2022-08-21T17:59:45;23.30;56.30
69054;DHT22;56125;52.242;4.756;2022-08-21T18:04:46;23.30;56.00
69054;DHT22;56125;52.242;4.756;2022-08-21T18:09:49;23.30;56.00
69054;DHT22;56125;52.242;4.756;2022-08-21T18:14:51;23.30;55.90
69054;DHT22;56125;52.242;4.756;2022-08-21T18:19:52;23.30;56.00
69054;DHT22;56125;52.242;4.756;2022-08-21T18:24:53;23.20;55.80
69054;DHT22;56125;52.242;4.756;2022-08-21T18:29:56;23.20;55.80
69054;DHT22;56125;52.242;4.756;2022-08-21T18:34:59;23.20;55.90
69054;DHT22;56125;52.242;4.756;2022-08-21T18:40:01;23.20;55.90
69054;DHT22;56125;52.242;4.756;2022-08-21T18:45:06;23.10;55.80
69054;DHT22;56125;52.242;4.756;2022-08-21T18:50:09;23.20;55.60
69054;DHT22;56125;52.242;4.756;2022-08-21T18:55:12;23.10;55.60
69054;DHT22;56125;52.242;4.756;2022-08-21T19:00:17;23.10;55.70
69054;DHT22;56125;52.242;4.756;2022-08-21T19:05:21;23.10;55.90
69054;DHT22;56125;52.242;4.756;2022-08-21T19:10:22;23.10;56.10
69054;DHT22;56125;52.242;4.756;2022-08-21T19:15:23;23.10;56.30
69054;DHT22;56125;52.242;4.756;2022-08-21T19:20:29;23.10;56.40
69054;DHT22;56125;52.242;4.756;2022-08-21T19:25:32;23.10;56.40
69054;DHT22;56125;52.242;4.756;2022-08-21T19:30:40;23.10;56.50
69054;DHT22;56125;52.242;4.756;2022-08-21T19:35:41;23.10;56.50
69054;DHT22;56125;52.242;4.756;2022-08-21T19:40:43;23.10;56.50
69054;DHT22;56125;52.242;4.756;2022-08-21T19:45:44;23.10;56.90
69054;DHT22;56125;52.242;4.756;2022-08-21T19:50:46;23.10;56.50
69054;DHT22;56125;52.242;4.756;2022-08-21T19:55:47;23.10;56.60
69054;DHT22;56125;52.242;4.756;2022-08-21T20:00:48;23.10;56.60
69054;DHT22;56125;52.242;4.756;2022-08-21T20:05:49;23.10;56.70
69054;DHT22;56125;52.242;4.756;2022-08-21T20:10:51;23.10;56.40
69054;DHT22;56125;52.242;4.756;2022-08-21T20:15:53;23.10;56.40
69054;DHT22;56125;52.242;4.756;2022-08-21T20:20:54;23.10;56.50
69054;DHT22;56125;52.242;4.756;2022-08-21T20:25:55;23.10;56.50
69054;DHT22;56125;52.242;4.756;2022-08-21T20:30:56;23.10;56.60
69054;DHT22;56125;52.242;4.756;2022-08-21T20:35:59;23.10;56.60
69054;DHT22;56125;52.242;4.756;2022-08-21T20:41:00;23.00;56.50
69054;DHT22;56125;52.242;4.756;2022-08-21T20:46:02;23.00;56.40
69054;DHT22;56125;52.242;4.756;2022-08-21T20:51:25;23.00;56.60
69054;DHT22;56125;52.242;4.756;2022-08-21T21:01:32;23.00;56.80
69054;DHT22;56125;52.242;4.756;2022-08-21T21:06:34;23.00;56.90
69054;DHT22;56125;52.242;4.756;2022-08-21T21:11:39;23.00;57.00
69054;DHT22;56125;52.242;4.756;2022-08-21T21:16:45;23.00;57.10
69054;DHT22;56125;52.242;4.756;2022-08-21T21:21:55;23.00;57.10
69054;DHT22;56125;52.242;4.756;2022-08-21T21:27:03;23.00;57.20
69054;DHT22;56125;52.242;4.756;2022-08-21T21:32:07;23.00;57.10
69054;DHT22;56125;52.242;4.756;2022-08-21T21:37:21;23.00;57.30
69054;DHT22;56125;52.242;4.756;2022-08-21T21:58:45;22.90;57.00
69054;DHT22;56125;52.242;4.756;2022-08-21T22:04:00;22.90;57.10
69054;DHT22;56125;52.242;4.756;2022-08-21T22:09:19;22.90;57.30
69054;DHT22;56125;52.242;4.756;2022-08-21T22:14:30;23.00;57.40
69054;DHT22;56125;52.242;4.756;2022-08-21T22:19:36;22.90;57.40
69054;DHT22;56125;52.242;4.756;2022-08-21T22:24:41;22.90;57.50
69054;DHT22;56125;52.242;4.756;2022-08-21T22:29:54;22.90;57.40
69054;DHT22;56125;52.242;4.756;2022-08-21T22:35:28;22.90;57.40
69054;DHT22;56125;52.242;4.756;2022-08-21T22:40:34;22.90;57.40
69054;DHT22;56125;52.242;4.756;2022-08-21T22:45:57;22.90;57.60
69054;DHT22;56125;52.242;4.756;2022-08-21T22:51:09;22.90;57.70
69054;DHT22;56125;52.242;4.756;2022-08-21T22:57:27;22.90;57.80
69054;DHT22;56125;52.242;4.756;2022-08-21T23:07:01;22.90;57.80
69054;DHT22;56125;52.242;4.756;2022-08-21T23:12:23;22.90;57.90
69054;DHT22;56125;52.242;4.756;2022-08-21T23:17:46;22.90;57.80
69054;DHT22;56125;52.242;4.756;2022-08-21T23:23:09;22.90;57.80
69054;DHT22;56125;52.242;4.756;2022-08-21T23:33:38;22.90;57.90
69054;DHT22;56125;52.242;4.756;2022-08-21T23:39:54;22.80;57.90
69054;DHT22;56125;52.242;4.756;2022-08-21T23:50:14;22.80;57.90
